createdAt,value
2023-08-11T00:00:54.854Z,26.66
2023-08-11T00:01:54.488Z,26.65
2023-08-11T00:02:54.563Z,26.65
2023-08-11T00:03:54.497Z,26.65
2023-08-11T00:04:54.459Z,26.65
2023-08-11T00:05:54.481Z,26.65
2023-08-11T00:06:54.498Z,26.66
2023-08-11T00:07:54.437Z,26.65
2023-08-11T00:08:54.431Z,26.66
2023-08-11T00:09:54.429Z,26.63
2023-08-11T00:10:54.397Z,26.65
2023-08-11T00:11:54.405Z,26.63
2023-08-11T00:12:54.429Z,26.65
2023-08-11T00:13:54.358Z,26.65
2023-08-11T00:14:54.389Z,26.65
2023-08-11T00:15:54.359Z,26.66
2023-08-11T00:16:54.332Z,26.65
2023-08-11T00:17:54.416Z,26.63
2023-08-11T00:18:54.388Z,26.62
2023-08-11T00:19:54.342Z,26.66
2023-08-11T00:20:54.313Z,26.63
2023-08-11T00:21:54.287Z,26.62
2023-08-11T00:22:54.253Z,26.63
2023-08-11T00:23:54.273Z,26.62
2023-08-11T00:24:54.282Z,26.62
2023-08-11T00:25:54.226Z,26.65
2023-08-11T00:26:54.244Z,26.62
2023-08-11T00:27:54.212Z,26.62
2023-08-11T00:28:54.194Z,26.60
2023-08-11T00:29:54.210Z,26.65
2023-08-11T00:30:54.196Z,26.63
2023-08-11T00:31:54.193Z,26.65
2023-08-11T00:32:54.238Z,26.65
2023-08-11T00:33:54.144Z,26.65
2023-08-11T00:34:54.145Z,26.60
2023-08-11T00:35:54.118Z,26.62
2023-08-11T00:36:54.136Z,26.63
2023-08-11T00:37:54.125Z,26.63
2023-08-11T00:38:54.089Z,26.62
2023-08-11T00:39:54.115Z,26.62
2023-08-11T00:40:54.098Z,26.62
2023-08-11T00:41:54.056Z,26.63
2023-08-11T00:42:54.089Z,26.60
2023-08-11T00:43:54.038Z,26.63
2023-08-11T00:44:54.015Z,26.62
2023-08-11T00:45:54.066Z,26.60
2023-08-11T00:46:53.994Z,26.60
2023-08-11T00:47:54.070Z,26.60
2023-08-11T00:48:54.590Z,26.63
2023-08-11T00:49:53.969Z,26.60
2023-08-11T00:50:53.980Z,26.62
2023-08-11T00:51:53.951Z,26.62
2023-08-11T00:52:53.933Z,26.60
2023-08-11T00:53:53.944Z,26.60
2023-08-11T00:54:53.961Z,26.62
2023-08-11T00:55:53.908Z,26.63
2023-08-11T00:56:53.898Z,26.60
2023-08-11T00:57:53.906Z,26.62
2023-08-11T00:58:53.877Z,26.63
2023-08-11T00:59:53.914Z,26.62
2023-08-11T01:00:53.937Z,26.62
2023-08-11T01:01:53.842Z,26.62
2023-08-11T01:02:53.877Z,26.60
2023-08-11T01:03:53.818Z,26.60
2023-08-11T01:04:53.854Z,26.60
2023-08-11T01:05:53.859Z,26.60
2023-08-11T01:06:53.831Z,26.62
2023-08-11T01:07:53.842Z,26.60
2023-08-11T01:08:53.787Z,26.63
2023-08-11T01:09:53.784Z,26.62
2023-08-11T01:10:53.745Z,26.62
2023-08-11T01:11:53.758Z,26.60
2023-08-11T01:12:53.783Z,26.60
2023-08-11T01:13:53.729Z,26.60
2023-08-11T01:14:53.725Z,26.62
2023-08-11T01:15:53.693Z,26.62
2023-08-11T01:16:53.778Z,26.60
2023-08-11T01:17:53.722Z,26.57
2023-08-11T01:18:53.723Z,26.58
2023-08-11T01:19:53.675Z,26.60
2023-08-11T01:20:53.656Z,26.58
2023-08-11T01:21:53.633Z,26.58
2023-08-11T01:22:53.633Z,26.58
2023-08-11T01:23:53.613Z,26.58
2023-08-11T01:24:53.629Z,26.60
2023-08-11T01:25:53.604Z,26.60
2023-08-11T01:26:53.587Z,26.62
2023-08-11T01:27:53.570Z,26.62
2023-08-11T01:28:53.562Z,26.60
2023-08-11T01:29:53.566Z,26.57
2023-08-11T01:30:54.502Z,26.57
2023-08-11T01:31:53.541Z,26.58
2023-08-11T01:32:53.541Z,26.57
2023-08-11T01:33:53.504Z,26.57
2023-08-11T01:34:53.513Z,26.58
2023-08-11T01:35:53.486Z,26.57
2023-08-11T01:36:54.016Z,26.57
2023-08-11T01:37:53.483Z,26.58
2023-08-11T01:38:53.445Z,26.58
2023-08-11T01:39:53.463Z,26.57
2023-08-11T01:40:53.454Z,26.55
2023-08-11T01:41:53.417Z,26.55
2023-08-11T01:42:55.342Z,26.55
2023-08-11T01:43:53.402Z,26.55
2023-08-11T01:44:53.386Z,26.55
2023-08-11T01:45:53.408Z,26.57
2023-08-11T01:46:53.383Z,26.55
2023-08-11T01:47:53.492Z,26.55
2023-08-11T01:48:53.974Z,26.54
2023-08-11T01:49:53.344Z,26.55
2023-08-11T01:50:53.335Z,26.55
2023-08-11T01:51:53.312Z,26.57
2023-08-11T01:52:53.300Z,26.58
2023-08-11T01:53:53.309Z,26.57
2023-08-11T01:54:53.301Z,26.55
2023-08-11T01:55:53.297Z,26.58
2023-08-11T01:56:53.269Z,26.55
2023-08-11T01:57:59.090Z,26.55
2023-08-11T01:58:53.241Z,26.57
2023-08-11T01:59:53.247Z,26.54
2023-08-11T02:00:53.814Z,26.57
2023-08-11T02:01:53.241Z,26.55
2023-08-11T02:02:53.271Z,26.55
2023-08-11T02:03:53.260Z,26.55
2023-08-11T02:04:53.170Z,26.55
2023-08-11T02:05:53.199Z,26.57
2023-08-11T02:06:53.190Z,26.57
2023-08-11T02:07:53.175Z,26.57
2023-08-11T02:08:53.144Z,26.55
2023-08-11T02:09:53.117Z,26.55
2023-08-11T02:10:53.119Z,26.55
2023-08-11T02:11:53.106Z,26.57
2023-08-11T02:12:53.116Z,26.54
2023-08-11T02:13:53.089Z,26.57
2023-08-11T02:14:53.077Z,26.57
2023-08-11T02:15:53.085Z,26.55
2023-08-11T02:16:53.040Z,26.54
2023-08-11T02:17:53.128Z,26.55
2023-08-11T02:18:53.052Z,26.57
2023-08-11T02:19:53.055Z,26.55
2023-08-11T02:20:53.020Z,26.55
2023-08-11T02:21:52.984Z,26.55
2023-08-11T02:22:53.116Z,26.54
2023-08-11T02:23:52.962Z,26.54
2023-08-11T02:24:52.985Z,26.55
2023-08-11T02:25:52.974Z,26.54
2023-08-11T02:26:52.922Z,26.54
2023-08-11T02:27:52.946Z,26.57
2023-08-11T02:28:52.921Z,26.54
2023-08-11T02:29:52.893Z,26.51
2023-08-11T02:30:52.917Z,26.52
2023-08-11T02:31:52.944Z,26.52
2023-08-11T02:32:52.915Z,26.54
2023-08-11T02:33:52.855Z,26.54
2023-08-11T02:34:52.860Z,26.55
2023-08-11T02:35:52.831Z,26.54
2023-08-11T02:36:52.838Z,26.57
2023-08-11T02:37:52.830Z,26.54
2023-08-11T02:38:52.810Z,26.52
2023-08-11T02:39:52.851Z,26.52
2023-08-11T02:40:52.811Z,26.52
2023-08-11T02:41:52.770Z,26.52
2023-08-11T02:42:52.833Z,26.54
2023-08-11T02:43:52.746Z,26.52
2023-08-11T02:44:52.727Z,26.52
2023-08-11T02:45:52.783Z,26.52
2023-08-11T02:46:52.704Z,26.52
2023-08-11T02:47:52.826Z,26.55
2023-08-11T02:48:53.266Z,26.52
2023-08-11T02:49:52.710Z,26.54
2023-08-11T02:50:52.694Z,26.55
2023-08-11T02:51:52.658Z,26.52
2023-08-11T02:52:52.640Z,26.51
2023-08-11T02:53:52.653Z,26.54
2023-08-11T02:54:52.644Z,26.54
2023-08-11T02:55:52.640Z,26.52
2023-08-11T02:56:52.617Z,26.52
2023-08-11T02:57:52.598Z,26.52
2023-08-11T02:58:52.596Z,26.55
2023-08-11T02:59:52.571Z,26.54
2023-08-11T03:00:52.832Z,26.52
2023-08-11T03:01:52.576Z,26.54
2023-08-11T03:02:52.638Z,26.52
2023-08-11T03:03:52.528Z,26.52
2023-08-11T03:04:52.514Z,26.52
2023-08-11T03:05:52.526Z,26.57
2023-08-11T03:06:53.033Z,26.54
2023-08-11T03:07:52.520Z,26.54
2023-08-11T03:08:52.512Z,26.54
2023-08-11T03:09:52.473Z,26.51
2023-08-11T03:10:57.035Z,26.52
2023-08-11T03:11:52.440Z,26.54
2023-08-11T03:12:52.456Z,26.51
2023-08-11T03:13:52.437Z,26.51
2023-08-11T03:14:52.404Z,26.51
2023-08-11T03:15:52.446Z,26.52
2023-08-11T03:16:52.399Z,26.50
2023-08-11T03:17:52.559Z,26.48
2023-08-11T03:18:52.760Z,26.51
2023-08-11T03:19:52.368Z,26.51
2023-08-11T03:20:54.741Z,26.51
2023-08-11T03:21:52.331Z,26.50
2023-08-11T03:22:52.343Z,26.51
2023-08-11T03:23:52.312Z,26.50
2023-08-11T03:24:52.736Z,26.54
2023-08-11T03:25:52.305Z,26.54
2023-08-11T03:26:52.284Z,26.52
2023-08-11T03:27:52.290Z,26.50
2023-08-11T03:28:52.307Z,26.52
2023-08-11T03:29:52.245Z,26.51
2023-08-11T03:30:52.292Z,26.50
2023-08-11T03:31:52.260Z,26.52
2023-08-11T03:32:52.237Z,26.50
2023-08-11T03:33:52.229Z,26.50
2023-08-11T03:36:01.661Z,26.54
2023-08-11T03:37:02.656Z,26.51
2023-08-11T03:39:01.179Z,26.51
2023-08-11T03:39:06.478Z,26.54
2023-08-11T03:40:11.394Z,26.51
2023-08-11T03:41:06.466Z,26.50
2023-08-11T03:42:06.713Z,26.51
2023-08-11T03:43:06.422Z,26.50
2023-08-11T03:44:06.431Z,26.50
2023-08-11T03:45:21.373Z,26.48
2023-08-11T03:46:06.406Z,26.50
2023-08-11T03:47:06.409Z,26.51
2023-08-11T03:48:06.429Z,26.50
2023-08-11T03:49:06.360Z,26.50
2023-08-11T03:50:06.363Z,26.48
2023-08-11T03:51:06.339Z,26.50
2023-08-11T03:52:06.527Z,26.52
2023-08-11T03:53:07.009Z,26.50
2023-08-11T03:54:06.305Z,26.48
2023-08-11T03:55:06.292Z,26.48
2023-08-11T03:56:06.280Z,26.48
2023-08-11T03:57:06.302Z,26.48
2023-08-11T03:58:06.250Z,26.51
2023-08-11T03:59:06.805Z,26.48
2023-08-11T04:00:06.263Z,26.45
2023-08-11T04:01:06.271Z,26.50
2023-08-11T04:02:06.744Z,26.47
2023-08-11T04:03:06.264Z,26.47
2023-08-11T04:04:06.268Z,26.47
2023-08-11T04:05:06.231Z,26.47
2023-08-11T04:06:06.160Z,26.48
2023-08-11T04:07:06.175Z,26.50
2023-08-11T04:08:06.196Z,26.50
2023-08-11T04:09:06.136Z,26.48
2023-08-11T04:10:06.156Z,26.50
2023-08-11T04:11:06.633Z,26.48
2023-08-11T04:12:06.408Z,26.50
2023-08-11T04:13:06.124Z,26.50
2023-08-11T04:14:06.110Z,26.50
2023-08-11T04:15:06.101Z,26.47
2023-08-11T04:16:06.047Z,26.50
2023-08-11T04:17:06.061Z,26.51
2023-08-11T04:18:06.116Z,26.47
2023-08-11T04:19:06.021Z,26.48
2023-08-11T04:20:06.049Z,26.48
2023-08-11T04:21:06.031Z,26.48
2023-08-11T04:22:06.123Z,26.50
2023-08-11T04:23:06.007Z,26.50
2023-08-11T04:24:05.998Z,26.47
2023-08-11T04:25:06.014Z,26.47
2023-08-11T04:26:05.993Z,26.48
2023-08-11T04:27:05.955Z,26.48
2023-08-11T04:28:05.923Z,26.50
2023-08-11T04:29:05.940Z,26.51
2023-08-11T04:30:05.956Z,26.47
2023-08-11T04:31:05.907Z,26.48
2023-08-11T04:32:06.315Z,26.47
2023-08-11T04:33:05.944Z,26.45
2023-08-11T04:34:05.857Z,26.48
2023-08-11T04:35:06.597Z,26.44
2023-08-11T04:36:05.851Z,26.44
2023-08-11T04:37:06.679Z,26.43
2023-08-11T04:38:05.840Z,26.43
2023-08-11T04:39:05.847Z,26.43
2023-08-11T04:40:05.805Z,26.45
2023-08-11T04:41:06.373Z,26.40
2023-08-11T04:42:05.983Z,26.40
2023-08-11T04:43:05.779Z,26.39
2023-08-11T04:44:05.793Z,26.40
2023-08-11T04:45:05.779Z,26.44
2023-08-11T04:46:05.750Z,26.40
2023-08-11T04:47:05.767Z,26.44
2023-08-11T04:48:05.736Z,26.43
2023-08-11T04:49:05.753Z,26.39
2023-08-11T04:50:05.716Z,26.40
2023-08-11T04:51:05.694Z,26.39
2023-08-11T04:52:05.690Z,26.39
2023-08-11T04:53:06.536Z,26.40
2023-08-11T04:54:05.641Z,26.36
2023-08-11T04:55:06.253Z,26.36
2023-08-11T04:56:05.652Z,26.39
2023-08-11T04:57:05.638Z,26.39
2023-08-11T04:58:05.662Z,26.39
2023-08-11T04:59:06.090Z,26.37
2023-08-11T05:00:06.772Z,26.39
2023-08-11T05:01:05.596Z,26.39
2023-08-11T05:02:05.812Z,26.40
2023-08-11T05:03:05.692Z,26.40
2023-08-11T05:04:05.603Z,26.35
2023-08-11T05:05:06.380Z,26.36
2023-08-11T05:06:07.084Z,26.35
2023-08-11T05:07:05.615Z,26.35
2023-08-11T05:08:05.494Z,26.37
2023-08-11T05:09:05.486Z,26.36
2023-08-11T05:10:05.504Z,26.36
2023-08-11T05:11:05.923Z,26.35
2023-08-11T05:12:05.916Z,26.36
2023-08-11T05:13:05.443Z,26.36
2023-08-11T05:14:05.467Z,26.39
2023-08-11T05:15:05.445Z,26.39
2023-08-11T05:16:05.469Z,26.39
2023-08-11T05:17:05.479Z,26.39
2023-08-11T05:18:05.398Z,26.33
2023-08-11T05:19:05.406Z,26.26
2023-08-11T05:20:05.382Z,26.10
2023-08-11T05:21:05.350Z,25.97
2023-08-11T05:22:05.360Z,25.83
2023-08-11T05:23:05.377Z,25.72
2023-08-11T05:24:05.419Z,25.61
2023-08-11T05:25:05.368Z,25.50
2023-08-11T05:26:05.299Z,25.36
2023-08-11T05:27:05.295Z,25.27
2023-08-11T05:28:05.302Z,25.17
2023-08-11T05:29:05.314Z,25.15
2023-08-11T05:30:05.417Z,25.08
2023-08-11T05:31:05.258Z,25.08
2023-08-11T05:32:05.301Z,25.03
2023-08-11T05:33:05.281Z,25.03
2023-08-11T05:34:05.244Z,25.03
2023-08-11T05:35:05.229Z,25.02
2023-08-11T05:36:05.286Z,25.00
2023-08-11T05:37:05.202Z,25.02
2023-08-11T05:38:05.166Z,25.03
2023-08-11T05:39:05.278Z,25.03
2023-08-11T05:40:05.181Z,25.02
2023-08-11T05:41:05.215Z,25.05
2023-08-11T05:42:05.141Z,25.03
2023-08-11T05:43:05.126Z,25.08
2023-08-11T05:44:05.113Z,25.08
2023-08-11T05:45:05.186Z,25.08
2023-08-11T05:46:05.134Z,25.13
2023-08-11T05:47:05.107Z,25.13
2023-08-11T05:48:05.184Z,25.14
2023-08-11T05:49:05.109Z,25.17
2023-08-11T05:50:05.061Z,25.21
2023-08-11T05:51:05.032Z,25.21
2023-08-11T05:52:05.024Z,25.27
2023-08-11T05:53:05.512Z,25.27
2023-08-11T05:54:05.027Z,25.32
2023-08-11T05:55:05.017Z,25.33
2023-08-11T05:56:05.001Z,25.36
2023-08-11T05:57:05.003Z,25.39
2023-08-11T05:58:04.974Z,25.40
2023-08-11T05:59:05.005Z,25.43
2023-08-11T06:00:04.959Z,25.43
2023-08-11T06:01:04.995Z,25.43
2023-08-11T06:02:04.914Z,25.45
2023-08-11T06:03:04.996Z,25.46
2023-08-11T06:04:40.368Z,25.46
2023-08-11T06:05:04.915Z,25.50
2023-08-11T06:06:04.856Z,25.50
2023-08-11T06:07:04.968Z,25.52
2023-08-11T06:08:06.989Z,25.52
2023-08-11T06:09:04.926Z,25.54
2023-08-11T06:10:04.930Z,25.52
2023-08-11T06:11:04.933Z,25.54
2023-08-11T06:12:04.815Z,25.57
2023-08-11T06:13:04.838Z,25.57
2023-08-11T06:14:04.783Z,25.55
2023-08-11T06:15:04.804Z,25.55
2023-08-11T06:16:04.831Z,25.58
2023-08-11T06:17:04.811Z,25.58
2023-08-11T06:18:04.802Z,25.58
2023-08-11T06:19:04.721Z,25.60
2023-08-11T06:20:04.714Z,25.64
2023-08-11T06:21:04.717Z,25.61
2023-08-11T06:22:04.721Z,25.61
2023-08-11T06:23:04.720Z,25.64
2023-08-11T06:24:04.800Z,25.61
2023-08-11T06:25:04.673Z,25.65
2023-08-11T06:26:04.708Z,25.61
2023-08-11T06:27:04.709Z,25.65
2023-08-11T06:28:04.650Z,25.69
2023-08-11T06:29:04.632Z,25.70
2023-08-11T06:30:04.629Z,25.65
2023-08-11T06:31:04.644Z,25.65
2023-08-11T06:32:04.586Z,25.67
2023-08-11T06:33:04.651Z,25.67
2023-08-11T06:34:05.132Z,25.67
2023-08-11T06:35:04.581Z,25.67
2023-08-11T06:36:04.555Z,25.67
2023-08-11T06:37:04.546Z,25.69
2023-08-11T06:38:04.525Z,25.69
2023-08-11T06:39:04.525Z,25.69
2023-08-11T06:40:04.617Z,25.70
2023-08-11T06:41:04.523Z,25.72
2023-08-11T06:42:04.477Z,25.72
2023-08-11T06:43:04.490Z,25.73
2023-08-11T06:44:04.467Z,25.73
2023-08-11T06:45:04.462Z,25.75
2023-08-11T06:46:05.400Z,25.75
2023-08-11T06:47:04.518Z,25.72
2023-08-11T06:48:04.438Z,25.72
2023-08-11T06:49:04.402Z,25.75
2023-08-11T06:50:04.420Z,25.73
2023-08-11T06:51:04.392Z,25.73
2023-08-11T06:52:04.403Z,25.76
2023-08-11T06:53:04.378Z,25.79
2023-08-11T06:54:04.391Z,25.79
2023-08-11T06:55:04.489Z,25.79
2023-08-11T06:56:04.315Z,25.79
2023-08-11T06:57:04.359Z,25.76
2023-08-11T06:58:04.336Z,25.73
2023-08-11T06:59:04.289Z,25.73
2023-08-11T07:00:04.283Z,25.70
2023-08-11T07:01:04.304Z,25.69
2023-08-11T07:02:04.310Z,25.67
2023-08-11T07:03:04.353Z,25.67
2023-08-11T07:04:04.266Z,25.69
2023-08-11T07:05:04.265Z,25.70
2023-08-11T07:06:04.205Z,25.67
2023-08-11T07:07:04.271Z,25.69
2023-08-11T07:08:04.205Z,25.70
2023-08-11T07:09:04.182Z,25.73
2023-08-11T07:10:04.887Z,25.72
2023-08-11T07:11:04.154Z,25.72
2023-08-11T07:12:04.145Z,25.72
2023-08-11T07:13:04.171Z,25.70
2023-08-11T07:14:04.120Z,25.72
2023-08-11T07:15:04.156Z,25.75
2023-08-11T07:16:04.685Z,25.72
2023-08-11T07:17:04.142Z,25.73
2023-08-11T07:18:04.108Z,25.73
2023-08-11T07:19:04.071Z,25.75
2023-08-11T07:20:04.092Z,25.73
2023-08-11T07:21:07.286Z,25.72
2023-08-11T07:22:04.198Z,25.73
2023-08-11T07:23:04.050Z,25.73
2023-08-11T07:24:04.029Z,25.77
2023-08-11T07:25:04.024Z,25.76
2023-08-11T07:26:04.053Z,25.72
2023-08-11T07:27:03.995Z,25.76
2023-08-11T07:28:04.008Z,25.73
2023-08-11T07:29:03.974Z,25.73
2023-08-11T07:30:03.942Z,25.72
2023-08-11T07:31:04.029Z,25.69
2023-08-11T07:32:03.977Z,25.67
2023-08-11T07:33:03.934Z,25.67
2023-08-11T07:34:04.517Z,25.67
2023-08-11T07:35:03.966Z,25.65
2023-08-11T07:36:03.918Z,25.65
2023-08-11T07:37:03.933Z,25.64
2023-08-11T07:38:03.875Z,25.62
2023-08-11T07:39:20.648Z,25.62
2023-08-11T07:40:03.914Z,25.60
2023-08-11T07:41:03.845Z,25.57
2023-08-11T07:42:03.837Z,25.57
2023-08-11T07:43:03.840Z,25.51
2023-08-11T07:44:03.809Z,25.46
2023-08-11T07:45:03.810Z,25.40
2023-08-11T07:46:03.837Z,25.36
2023-08-11T07:47:03.929Z,25.30
2023-08-11T07:48:03.783Z,25.30
2023-08-11T07:49:03.774Z,25.27
2023-08-11T07:50:03.748Z,25.27
2023-08-11T07:51:03.728Z,25.27
2023-08-11T07:52:03.751Z,25.28
2023-08-11T07:53:03.743Z,25.30
2023-08-11T07:54:03.785Z,25.32
2023-08-11T07:55:03.841Z,25.28
2023-08-11T07:56:03.680Z,25.24
2023-08-11T07:57:03.656Z,25.24
2023-08-11T07:58:03.689Z,25.21
2023-08-11T07:59:03.725Z,25.24
2023-08-11T08:00:03.622Z,25.24
2023-08-11T08:01:04.306Z,25.23
2023-08-11T08:02:03.612Z,25.24
2023-08-11T08:03:03.695Z,25.30
2023-08-11T08:04:03.665Z,25.28
2023-08-11T08:05:12.222Z,25.28
2023-08-11T08:06:03.555Z,25.32
2023-08-11T08:07:03.565Z,25.33
2023-08-11T08:08:03.550Z,25.38
2023-08-11T08:09:03.528Z,25.40
2023-08-11T08:10:05.100Z,25.42
2023-08-11T08:11:03.508Z,25.46
2023-08-11T08:12:03.538Z,25.47
2023-08-11T08:13:03.507Z,25.52
2023-08-11T08:14:03.478Z,25.55
2023-08-11T08:15:03.531Z,25.57
2023-08-11T08:16:03.582Z,25.57
2023-08-11T08:17:03.515Z,25.61
2023-08-11T08:18:03.504Z,25.60
2023-08-11T08:19:03.515Z,25.64
2023-08-11T08:20:03.527Z,25.67
2023-08-11T08:21:03.517Z,25.69
2023-08-11T08:22:03.499Z,25.64
2023-08-11T08:23:03.518Z,25.65
2023-08-11T08:24:03.529Z,25.67
2023-08-11T08:25:03.376Z,25.70
2023-08-11T08:26:03.357Z,25.70
2023-08-11T08:27:03.328Z,25.75
2023-08-11T08:28:06.582Z,25.75
2023-08-11T08:29:03.324Z,25.79
2023-08-11T08:30:03.320Z,25.79
2023-08-11T08:31:04.052Z,25.80
2023-08-11T08:32:03.286Z,25.80
2023-08-11T08:33:03.344Z,25.79
2023-08-11T08:34:03.401Z,25.80
2023-08-11T08:35:03.274Z,25.85
2023-08-11T08:36:03.232Z,25.85
2023-08-11T08:37:03.252Z,25.87
2023-08-11T08:38:03.236Z,25.88
2023-08-11T08:39:03.226Z,25.85
2023-08-11T08:40:03.353Z,25.88
2023-08-11T08:41:03.219Z,25.87
2023-08-11T08:42:03.164Z,25.88
2023-08-11T08:43:03.180Z,25.91
2023-08-11T08:44:03.170Z,25.90
2023-08-11T08:45:03.161Z,25.92
2023-08-11T08:46:03.214Z,25.92
2023-08-11T08:47:03.135Z,25.92
2023-08-11T08:48:03.145Z,25.92
2023-08-11T08:49:03.129Z,25.95
2023-08-11T08:50:03.128Z,25.92
2023-08-11T08:51:03.097Z,25.94
2023-08-11T08:52:05.682Z,25.94
2023-08-11T08:53:03.045Z,25.95
2023-08-11T08:54:03.025Z,25.94
2023-08-11T08:55:03.060Z,25.97
2023-08-11T08:56:03.037Z,25.94
2023-08-11T08:57:02.998Z,25.95
2023-08-11T08:58:03.039Z,25.97
2023-08-11T08:59:02.978Z,25.99
2023-08-11T09:00:03.794Z,25.98
2023-08-11T09:01:02.999Z,26.02
2023-08-11T09:02:05.750Z,26.05
2023-08-11T09:03:03.140Z,26.05
2023-08-11T09:04:03.267Z,26.05
2023-08-11T09:05:02.925Z,26.07
2023-08-11T09:06:02.917Z,26.12
2023-08-11T09:07:02.922Z,26.10
2023-08-11T09:08:02.876Z,26.13
2023-08-11T09:09:02.889Z,26.13
2023-08-11T09:10:02.961Z,26.13
2023-08-11T09:11:02.853Z,26.13
2023-08-11T09:12:02.881Z,26.12
2023-08-11T09:13:02.848Z,26.12
2023-08-11T09:14:02.835Z,26.07
2023-08-11T09:15:02.838Z,26.10
2023-08-11T09:16:02.861Z,26.06
2023-08-11T09:17:02.824Z,26.10
2023-08-11T09:18:02.907Z,26.05
2023-08-11T09:19:02.774Z,26.06
2023-08-11T09:20:02.784Z,26.05
2023-08-11T09:21:02.768Z,26.07
2023-08-11T09:22:03.550Z,26.05
2023-08-11T09:23:02.772Z,26.05
2023-08-11T09:24:02.764Z,26.05
2023-08-11T09:25:02.701Z,26.06
2023-08-11T09:26:02.722Z,26.09
2023-08-11T09:27:02.677Z,26.10
2023-08-11T09:28:03.017Z,26.12
2023-08-11T09:29:02.678Z,26.09
2023-08-11T09:30:02.655Z,26.09
2023-08-11T09:31:02.649Z,26.07
2023-08-11T09:32:02.682Z,26.05
2023-08-11T09:33:02.762Z,26.02
2023-08-11T09:34:02.661Z,26.02
2023-08-11T09:35:02.601Z,25.99
2023-08-11T09:36:02.590Z,26.01
2023-08-11T09:37:02.573Z,25.99
2023-08-11T09:38:02.561Z,26.01
2023-08-11T09:39:02.561Z,26.02
2023-08-11T09:40:02.638Z,25.99
2023-08-11T09:41:02.536Z,26.01
2023-08-11T09:42:02.572Z,26.01
2023-08-11T09:43:02.543Z,25.99
2023-08-11T09:44:02.569Z,26.05
2023-08-11T09:45:02.498Z,26.06
2023-08-11T09:46:03.150Z,26.05
2023-08-11T09:47:14.813Z,26.05
2023-08-11T09:48:02.491Z,26.02
2023-08-11T09:49:02.466Z,26.01
2023-08-11T09:50:02.432Z,26.02
2023-08-11T09:51:02.449Z,26.02
2023-08-11T09:52:02.531Z,25.99
2023-08-11T09:53:02.396Z,26.02
2023-08-11T09:54:04.219Z,26.05
2023-08-11T09:55:02.362Z,26.02
2023-08-11T09:56:02.361Z,26.06
2023-08-11T09:57:02.376Z,26.05
2023-08-11T09:58:02.413Z,26.05
2023-08-11T09:59:02.332Z,26.05
2023-08-11T10:00:02.386Z,26.02
2023-08-11T10:01:14.668Z,26.05
2023-08-11T10:02:02.351Z,26.02
2023-08-11T10:03:02.427Z,26.02
2023-08-11T10:04:02.682Z,26.01
2023-08-11T10:05:02.261Z,26.02
2023-08-11T10:06:02.273Z,26.06
2023-08-11T10:07:02.261Z,26.05
2023-08-11T10:08:02.243Z,26.05
2023-08-11T10:09:02.276Z,26.06
2023-08-11T10:10:02.227Z,26.05
2023-08-11T10:11:02.235Z,26.07
2023-08-11T10:12:02.234Z,26.05
2023-08-11T10:13:02.168Z,26.07
2023-08-11T10:14:02.173Z,26.09
2023-08-11T10:15:02.196Z,26.09
2023-08-11T10:16:02.252Z,26.10
2023-08-11T10:17:02.167Z,26.10
2023-08-11T10:18:02.164Z,26.10
2023-08-11T10:19:02.120Z,26.12
2023-08-11T10:20:02.123Z,26.12
2023-08-11T10:21:03.079Z,26.15
2023-08-11T10:22:02.192Z,26.18
2023-08-11T10:23:02.115Z,26.18
2023-08-11T10:24:02.104Z,26.20
2023-08-11T10:25:02.091Z,26.21
2023-08-11T10:26:02.065Z,26.23
2023-08-11T10:27:02.058Z,26.25
2023-08-11T10:28:02.047Z,26.20
2023-08-11T10:29:02.013Z,26.23
2023-08-11T10:30:02.066Z,26.18
2023-08-11T10:31:02.027Z,26.25
2023-08-11T10:32:02.001Z,26.21
2023-08-11T10:33:02.006Z,26.25
2023-08-11T10:34:01.995Z,26.23
2023-08-11T10:35:01.930Z,26.25
2023-08-11T10:36:01.944Z,26.25
2023-08-11T10:37:01.930Z,26.23
2023-08-11T10:38:02.296Z,26.25
2023-08-11T10:39:01.968Z,26.25
2023-08-11T10:40:02.618Z,26.25
2023-08-11T10:41:01.900Z,26.23
2023-08-11T10:42:01.910Z,26.23
2023-08-11T10:43:01.841Z,26.23
2023-08-11T10:44:01.889Z,26.21
2023-08-11T10:45:01.865Z,26.21
2023-08-11T10:46:01.866Z,26.20
2023-08-11T10:47:02.705Z,26.20
2023-08-11T10:48:01.920Z,26.21
2023-08-11T10:49:01.831Z,26.21
2023-08-11T10:50:01.796Z,26.21
2023-08-11T10:51:01.782Z,26.20
2023-08-11T10:52:01.854Z,26.18
2023-08-11T10:53:01.739Z,26.20
2023-08-11T10:54:01.767Z,26.18
2023-08-11T10:55:01.712Z,26.20
2023-08-11T10:56:01.728Z,26.21
2023-08-11T10:57:01.749Z,26.20
2023-08-11T10:58:02.930Z,26.20
2023-08-11T10:59:01.690Z,26.21
2023-08-11T11:00:01.737Z,26.21
2023-08-11T11:01:01.706Z,26.18
2023-08-11T11:02:01.647Z,26.20
2023-08-11T11:03:01.668Z,26.20
2023-08-11T11:04:01.968Z,26.21
2023-08-11T11:05:01.841Z,26.20
2023-08-11T11:06:01.700Z,26.18
2023-08-11T11:07:01.610Z,26.21
2023-08-11T11:08:01.580Z,26.20
2023-08-11T11:09:01.586Z,26.20
2023-08-11T11:10:01.653Z,26.20
2023-08-11T11:11:01.565Z,26.20
2023-08-11T11:12:01.605Z,26.20
2023-08-11T11:13:01.674Z,26.20
2023-08-11T11:14:01.730Z,26.20
2023-08-11T11:15:01.700Z,26.18
2023-08-11T11:16:02.244Z,26.23
2023-08-11T11:17:01.894Z,26.21
2023-08-11T11:18:01.539Z,26.21
2023-08-11T11:19:01.544Z,26.23
2023-08-11T11:20:03.476Z,26.21
2023-08-11T11:21:01.447Z,26.23
2023-08-11T11:22:01.468Z,26.23
2023-08-11T11:23:01.454Z,26.21
2023-08-11T11:24:01.434Z,26.25
2023-08-11T11:25:01.400Z,26.25
2023-08-11T11:26:01.404Z,26.23
2023-08-11T11:27:01.405Z,26.25
2023-08-11T11:28:01.394Z,26.26
2023-08-11T11:29:01.411Z,26.25
2023-08-11T11:30:01.404Z,26.26
2023-08-11T11:31:01.361Z,26.26
2023-08-11T11:32:01.335Z,26.26
2023-08-11T11:33:03.626Z,26.26
2023-08-11T11:34:01.414Z,26.28
2023-08-11T11:35:01.278Z,26.28
2023-08-11T11:36:01.294Z,26.29
2023-08-11T11:37:01.298Z,26.26
2023-08-11T11:38:01.266Z,26.25
2023-08-11T11:39:03.723Z,26.26
2023-08-11T11:40:01.309Z,26.28
2023-08-11T11:41:01.254Z,26.28
2023-08-11T11:42:01.231Z,26.28
2023-08-11T11:43:01.224Z,26.26
2023-08-11T11:44:01.193Z,26.26
2023-08-11T11:45:03.869Z,26.28
2023-08-11T11:46:01.307Z,26.29
2023-08-11T11:47:01.177Z,26.29
2023-08-11T11:48:01.283Z,26.32
2023-08-11T11:49:02.066Z,26.32
2023-08-11T11:50:01.183Z,26.32
2023-08-11T11:51:03.386Z,26.32
2023-08-11T11:52:01.975Z,26.35
2023-08-11T11:53:01.087Z,26.35
2023-08-11T11:54:01.120Z,26.35
2023-08-11T11:55:01.093Z,26.36
2023-08-11T11:56:01.117Z,26.36
2023-08-11T11:57:04.690Z,26.36
2023-08-11T11:58:01.147Z,26.39
2023-08-11T11:59:01.127Z,26.39
2023-08-11T12:00:01.038Z,26.39
2023-08-11T12:01:01.013Z,26.35
2023-08-11T12:02:01.220Z,26.39
2023-08-11T12:03:01.067Z,26.40
2023-08-11T12:04:01.065Z,26.37
2023-08-11T12:05:01.088Z,26.40
2023-08-11T12:06:01.017Z,26.39
2023-08-11T12:07:00.955Z,26.40
2023-08-11T12:08:01.007Z,26.39
2023-08-11T12:09:00.963Z,26.40
2023-08-11T12:10:01.582Z,26.39
2023-08-11T12:11:00.926Z,26.40
2023-08-11T12:12:00.924Z,26.40
2023-08-11T12:13:00.887Z,26.39
2023-08-11T12:14:00.873Z,26.43
2023-08-11T12:15:00.849Z,26.40
2023-08-11T12:16:01.716Z,26.43
2023-08-11T12:17:00.847Z,26.40
2023-08-11T12:18:00.867Z,26.43
2023-08-11T12:19:00.845Z,26.44
2023-08-11T12:20:00.811Z,26.40
2023-08-11T12:21:00.876Z,26.39
2023-08-11T12:22:00.806Z,26.43
2023-08-11T12:23:00.859Z,26.43
2023-08-11T12:24:00.772Z,26.43
2023-08-11T12:25:00.743Z,26.47
2023-08-11T12:26:00.751Z,26.44
2023-08-11T12:27:00.717Z,26.43
2023-08-11T12:28:00.741Z,26.44
2023-08-11T12:29:00.723Z,26.44
2023-08-11T12:30:00.700Z,26.45
2023-08-11T12:31:00.697Z,26.44
2023-08-11T12:32:00.665Z,26.44
2023-08-11T12:33:00.707Z,26.43
2023-08-11T12:34:00.720Z,26.45
2023-08-11T12:35:00.642Z,26.44
2023-08-11T12:36:00.640Z,26.44
2023-08-11T12:37:00.640Z,26.44
2023-08-11T12:38:00.613Z,26.43
2023-08-11T12:39:00.639Z,26.44
2023-08-11T12:40:00.932Z,26.45
2023-08-11T12:41:00.561Z,26.44
2023-08-11T12:42:00.578Z,26.43
2023-08-11T12:43:00.548Z,26.43
2023-08-11T12:44:01.681Z,26.43
2023-08-11T12:45:00.550Z,26.43
2023-08-11T12:46:00.640Z,26.44
2023-08-11T12:47:00.523Z,26.44
2023-08-11T12:48:00.543Z,26.45
2023-08-11T12:49:00.520Z,26.44
2023-08-11T12:50:00.503Z,26.43
2023-08-11T12:51:00.463Z,26.45
2023-08-11T12:52:00.522Z,26.44
2023-08-11T12:53:00.453Z,26.44
2023-08-11T12:54:00.467Z,26.44